createdAt,value
2023-10-23T00:02:31.989Z,1.40
2023-10-23T00:07:33.702Z,1.20
2023-10-23T00:12:35.465Z,1.17
2023-10-23T00:17:39.768Z,1.50
2023-10-23T00:22:41.549Z,1.20
2023-10-23T00:27:43.318Z,1.40
2023-10-23T00:32:45.064Z,1.20
2023-10-23T00:37:47.183Z,1.20
2023-10-23T00:42:49.089Z,1.10
2023-10-23T00:47:51.061Z,1.40
2023-10-23T00:52:52.947Z,1.20
2023-10-23T00:57:54.819Z,1.30
2023-10-23T01:02:56.632Z,1.50
2023-10-23T01:07:58.509Z,1.43
2023-10-23T01:13:00.250Z,1.50
2023-10-23T01:18:02.485Z,1.40
2023-10-23T01:23:04.681Z,1.57
2023-10-23T01:28:07.292Z,1.50
2023-10-23T01:33:09.142Z,2.50
2023-10-23T01:38:14.816Z,2.17
2023-10-23T01:43:16.636Z,1.63
2023-10-23T01:48:18.499Z,1.60
2023-10-23T01:53:20.284Z,1.80
2023-10-23T01:58:22.013Z,1.40
2023-10-23T02:03:23.896Z,1.40
2023-10-23T02:08:25.623Z,1.20
2023-10-23T02:13:27.312Z,1.43
2023-10-23T02:18:29.094Z,1.70
2023-10-23T02:23:44.781Z,1.40
2023-10-23T02:28:54.840Z,1.57
2023-10-23T02:33:56.843Z,1.53
2023-10-23T02:38:59.078Z,1.90
2023-10-23T02:44:00.897Z,1.50
2023-10-23T02:49:04.311Z,1.70
2023-10-23T02:54:06.190Z,1.50
2023-10-23T02:59:07.959Z,1.63
2023-10-23T03:04:09.787Z,1.73
2023-10-23T03:09:13.410Z,1.60
2023-10-23T03:14:15.845Z,1.77
2023-10-23T03:19:17.640Z,1.30
2023-10-23T03:24:19.728Z,1.60
2023-10-23T03:29:21.482Z,1.40
2023-10-23T03:34:26.408Z,1.90
2023-10-23T03:39:28.392Z,1.97
2023-10-23T03:44:30.154Z,2.00
2023-10-23T03:49:32.183Z,1.50
2023-10-23T03:54:33.972Z,1.60
2023-10-23T03:59:35.720Z,1.97
2023-10-23T04:04:37.625Z,1.60
2023-10-23T04:09:39.681Z,1.60
2023-10-23T04:14:41.559Z,1.60
2023-10-23T04:19:43.332Z,1.50
2023-10-23T04:24:45.119Z,1.80
2023-10-23T04:29:46.875Z,1.80
2023-10-23T04:34:48.568Z,1.90
2023-10-23T04:39:50.412Z,2.13
2023-10-23T04:44:52.215Z,2.60
2023-10-23T04:49:53.890Z,2.00
2023-10-23T04:54:55.864Z,2.10
2023-10-23T04:59:57.702Z,3.27
2023-10-23T05:04:59.533Z,2.40
2023-10-23T05:10:05.250Z,3.80
2023-10-23T05:15:09.314Z,3.77
2023-10-23T05:20:11.512Z,4.10
2023-10-23T05:25:13.367Z,3.20
2023-10-23T05:30:15.078Z,3.23
2023-10-23T05:35:16.831Z,2.90
2023-10-23T05:40:18.561Z,4.60
2023-10-23T05:45:20.319Z,3.90
2023-10-23T05:50:22.081Z,3.50
2023-10-23T05:55:24.896Z,3.87
2023-10-23T06:00:28.030Z,3.60
2023-10-23T06:05:29.756Z,3.47
2023-10-23T06:10:31.923Z,3.93
2023-10-23T06:15:33.934Z,4.40
2023-10-23T06:20:35.759Z,3.10
2023-10-23T06:25:37.518Z,4.03
2023-10-23T06:30:39.253Z,3.67
2023-10-23T06:35:41.148Z,4.00
2023-10-23T06:40:42.864Z,3.63
2023-10-23T06:46:01.245Z,4.30
2023-10-23T06:51:05.057Z,4.97
2023-10-23T06:56:09.888Z,4.13
2023-10-23T07:01:11.682Z,8.93
2023-10-23T07:06:13.646Z,5.40
2023-10-23T07:11:20.592Z,4.37
2023-10-23T07:16:23.106Z,3.80
2023-10-23T07:21:27.218Z,3.80
2023-10-23T07:26:29.168Z,3.37
2023-10-23T07:31:31.041Z,4.77
2023-10-23T07:36:32.849Z,5.00
2023-10-23T07:41:34.774Z,4.97
2023-10-23T07:46:36.646Z,4.93
2023-10-23T07:51:39.537Z,5.23
2023-10-23T07:56:41.364Z,5.53
2023-10-23T08:01:43.166Z,5.70
2023-10-23T08:06:44.889Z,5.87
2023-10-23T08:11:46.584Z,7.17
2023-10-23T08:16:48.450Z,7.20
2023-10-23T08:21:50.407Z,4.37
2023-10-23T08:26:52.726Z,4.23
2023-10-23T08:31:54.689Z,3.40
2023-10-23T08:36:56.517Z,3.67
2023-10-23T08:41:58.598Z,4.17
2023-10-23T08:47:01.137Z,4.23
2023-10-23T08:52:06.860Z,4.33
2023-10-23T08:57:09.802Z,4.60
2023-10-23T09:02:15.162Z,4.00
2023-10-23T09:07:17.031Z,4.10
2023-10-23T09:12:36.306Z,4.50
2023-10-23T09:17:38.852Z,3.87
2023-10-23T09:22:42.074Z,3.90
2023-10-23T09:27:44.533Z,3.80
2023-10-23T09:32:56.347Z,3.30
2023-10-23T09:37:58.856Z,2.80
2023-10-23T09:43:03.045Z,2.97
2023-10-23T09:48:06.243Z,3.50
2023-10-23T09:53:11.247Z,3.10
2023-10-23T09:58:16.063Z,3.77
2023-10-23T10:03:20.162Z,4.70
2023-10-23T10:08:22.817Z,4.43
2023-10-23T10:13:25.228Z,4.57
2023-10-23T10:18:27.385Z,4.37
2023-10-23T10:23:29.923Z,5.03
2023-10-23T10:28:31.652Z,5.77
2023-10-23T10:34:21.755Z,5.20
2023-10-23T10:38:55.131Z,4.50
2023-10-23T10:43:57.977Z,5.20
2023-10-23T10:48:59.770Z,5.13
2023-10-23T10:54:10.963Z,5.17
2023-10-23T10:59:12.705Z,4.93
2023-10-23T11:04:14.591Z,6.27
2023-10-23T11:09:21.932Z,4.77
2023-10-23T11:14:25.948Z,5.50
2023-10-23T11:19:28.625Z,5.27
2023-10-23T11:24:30.343Z,4.47
2023-10-23T11:29:43.362Z,4.67
2023-10-23T11:34:48.848Z,5.00
2023-10-23T11:39:51.976Z,5.80
2023-10-23T11:44:54.135Z,6.37
2023-10-23T11:49:56.912Z,6.37
2023-10-23T11:54:59.024Z,5.70
2023-10-23T12:00:08.066Z,4.70
2023-10-23T12:05:14.198Z,4.77
2023-10-23T12:10:20.421Z,4.50
2023-10-23T12:15:24.447Z,5.73
2023-10-23T12:20:27.941Z,4.10
2023-10-23T12:25:29.737Z,4.77
2023-10-23T12:30:31.553Z,4.10
2023-10-23T12:35:33.434Z,3.87
2023-10-23T12:40:37.307Z,3.50
2023-10-23T12:45:39.470Z,4.07
2023-10-23T12:50:41.334Z,4.30
2023-10-23T12:55:44.746Z,3.23
2023-10-23T13:00:46.650Z,3.70
2023-10-23T13:05:49.924Z,3.70
2023-10-23T13:10:51.726Z,3.00
2023-10-23T13:15:53.484Z,2.87
2023-10-23T13:21:32.112Z,2.60
2023-10-23T13:26:18.384Z,2.80
2023-10-23T13:31:20.185Z,2.97
2023-10-23T13:36:22.134Z,2.87
2023-10-23T13:41:24.157Z,2.60
2023-10-23T13:46:26.057Z,2.80
2023-10-23T13:51:29.105Z,2.90
2023-10-23T13:56:31.042Z,3.10
2023-10-23T14:01:33.065Z,2.80
2023-10-23T14:06:34.885Z,2.83
2023-10-23T14:12:00.029Z,2.70
2023-10-23T14:16:59.504Z,2.37
2023-10-23T14:22:01.432Z,2.63
2023-10-23T14:27:03.819Z,3.03
2023-10-23T14:32:06.433Z,2.70
2023-10-23T14:37:08.346Z,2.50
2023-10-23T14:42:10.217Z,2.33
2023-10-23T14:47:12.084Z,2.70
2023-10-23T14:52:14.432Z,3.00
2023-10-23T14:57:16.158Z,3.10
2023-10-23T15:02:17.932Z,4.70
2023-10-23T15:07:19.806Z,5.10
2023-10-23T15:12:21.586Z,4.90
2023-10-23T15:17:23.595Z,5.27
2023-10-23T15:22:26.379Z,6.17
2023-10-23T15:27:28.170Z,5.90
2023-10-23T15:32:31.122Z,6.30
2023-10-23T15:37:32.954Z,5.60
2023-10-23T15:42:35.290Z,6.10
2023-10-23T15:47:37.126Z,5.90
2023-10-23T15:52:38.946Z,6.67
2023-10-23T15:57:40.682Z,7.00
2023-10-23T16:02:42.428Z,6.70
2023-10-23T16:07:44.207Z,6.47
2023-10-23T16:12:46.035Z,6.77
2023-10-23T16:17:47.959Z,7.57
2023-10-23T16:22:49.876Z,8.23
2023-10-23T16:27:53.721Z,9.23
2023-10-23T16:32:56.013Z,9.50
2023-10-23T16:37:57.862Z,8.00
2023-10-23T16:43:00.694Z,7.73
2023-10-23T16:48:04.202Z,8.50
2023-10-23T16:53:06.118Z,8.87
2023-10-23T16:58:07.897Z,9.23
2023-10-23T17:03:09.709Z,9.27
2023-10-23T17:08:11.750Z,9.10
2023-10-23T17:13:13.537Z,8.87
2023-10-23T17:18:16.345Z,9.67
2023-10-23T17:23:19.474Z,12.90
2023-10-23T17:28:21.904Z,11.93
2023-10-23T17:33:24.137Z,11.17
2023-10-23T17:38:26.084Z,11.00
2023-10-23T17:43:28.283Z,11.83
2023-10-23T17:48:30.255Z,12.23
2023-10-23T17:53:32.601Z,14.40
2023-10-23T17:58:38.133Z,13.90
2023-10-23T18:03:41.335Z,13.17
2023-10-23T18:08:43.096Z,14.23
2023-10-23T18:13:45.124Z,15.13
2023-10-23T18:18:46.868Z,14.60
2023-10-23T18:23:48.590Z,15.07
2023-10-23T18:28:51.191Z,16.63
2023-10-23T18:33:52.926Z,16.40
2023-10-23T18:38:55.001Z,15.53
2023-10-23T18:43:56.766Z,16.23
2023-10-23T18:48:59.402Z,15.87
2023-10-23T18:54:01.161Z,16.30
2023-10-23T18:59:02.925Z,15.97
2023-10-23T19:04:05.166Z,16.83
2023-10-23T19:09:07.036Z,16.50
2023-10-23T19:14:08.750Z,15.57
2023-10-23T19:19:10.552Z,16.70
2023-10-23T19:24:15.431Z,15.67
2023-10-23T19:29:17.426Z,15.60
2023-10-23T19:34:19.381Z,15.87
2023-10-23T19:39:21.471Z,16.40
2023-10-23T19:44:23.443Z,18.33
2023-10-23T19:49:25.492Z,20.23
2023-10-23T19:54:36.672Z,16.77
2023-10-23T19:59:44.178Z,16.43
2023-10-23T20:04:46.605Z,16.77
2023-10-23T20:09:48.531Z,14.43
2023-10-23T20:14:50.219Z,26.23
2023-10-23T20:19:52.322Z,16.53
2023-10-23T20:24:54.132Z,12.50
2023-10-23T20:29:55.878Z,12.83
2023-10-23T20:34:57.632Z,10.33
2023-10-23T20:40:01.508Z,11.57
2023-10-23T20:45:07.190Z,10.63
2023-10-23T20:50:09.719Z,12.00
2023-10-23T20:55:12.897Z,11.90
2023-10-23T21:00:15.001Z,9.40
2023-10-23T21:05:16.803Z,6.87
2023-10-23T21:10:18.858Z,6.93
2023-10-23T21:15:20.612Z,8.10
2023-10-23T21:20:22.363Z,5.90
2023-10-23T21:25:24.480Z,6.07
2023-10-23T21:30:26.518Z,42.43
2023-10-23T21:35:28.282Z,12.60
2023-10-23T21:40:30.088Z,7.27
2023-10-23T21:45:34.991Z,6.50
2023-10-23T21:50:45.008Z,7.83
2023-10-23T21:55:46.960Z,7.70
2023-10-23T22:00:49.621Z,6.97
2023-10-23T22:05:51.737Z,9.87
2023-10-23T22:10:53.717Z,11.90
2023-10-23T22:15:55.480Z,15.10
2023-10-23T22:20:57.281Z,15.47
2023-10-23T22:26:00.480Z,16.33
2023-10-23T22:31:03.020Z,17.07
2023-10-23T22:36:05.050Z,17.80
2023-10-23T22:41:06.763Z,17.23
2023-10-23T22:46:08.861Z,18.10
2023-10-23T22:51:10.853Z,18.77
2023-10-23T22:56:18.014Z,18.87
2023-10-23T23:01:21.904Z,17.43
2023-10-23T23:06:28.301Z,19.37
2023-10-23T23:11:30.278Z,18.37
2023-10-23T23:16:36.566Z,17.43
2023-10-23T23:21:42.284Z,16.90
2023-10-23T23:26:59.218Z,16.43
2023-10-23T23:32:01.010Z,16.70
2023-10-23T23:37:02.935Z,15.63
2023-10-23T23:42:04.923Z,15.03
2023-10-23T23:47:06.677Z,13.13
2023-10-23T23:52:09.154Z,14.03
2023-10-23T23:57:12.080Z,13.17
